createdAt,value
2023-04-26T00:02:18.213Z,99.90
2023-04-26T00:04:46.359Z,99.90
2023-04-26T00:07:14.062Z,99.90
2023-04-26T00:09:42.097Z,99.90
2023-04-26T00:12:09.058Z,99.90
2023-04-26T00:14:35.730Z,99.90
2023-04-26T00:17:04.326Z,99.90
2023-04-26T00:19:30.913Z,99.90
2023-04-26T00:21:57.583Z,99.90
2023-04-26T00:24:24.087Z,99.90
2023-04-26T00:26:50.744Z,99.90
2023-04-26T00:29:17.303Z,99.90
2023-04-26T00:31:43.879Z,99.90
2023-04-26T00:34:10.429Z,99.90
2023-04-26T00:36:37.122Z,99.90
2023-04-26T00:39:04.009Z,99.90
2023-04-26T00:41:30.514Z,99.90
2023-04-26T00:43:57.014Z,99.90
2023-04-26T00:46:23.615Z,99.90
2023-04-26T00:48:50.530Z,99.90
2023-04-26T00:51:17.212Z,99.90
2023-04-26T00:53:43.829Z,99.90
2023-04-26T00:56:10.417Z,99.90
2023-04-26T00:58:37.012Z,99.90
2023-04-26T01:01:03.770Z,99.90
2023-04-26T01:03:30.735Z,99.90
2023-04-26T01:05:57.493Z,99.90
2023-04-26T01:08:24.121Z,99.90
2023-04-26T01:10:50.776Z,99.90
2023-04-26T01:13:17.333Z,99.90
2023-04-26T01:15:43.851Z,99.90
2023-04-26T01:18:11.397Z,99.90
2023-04-26T01:20:38.104Z,99.90
2023-04-26T01:23:04.985Z,99.90
2023-04-26T01:25:32.015Z,99.90
2023-04-26T01:27:58.612Z,99.90
2023-04-26T01:30:25.568Z,99.90
2023-04-26T01:32:52.191Z,99.90
2023-04-26T01:35:18.774Z,99.90
2023-04-26T01:37:45.347Z,99.90
2023-04-26T01:40:11.975Z,99.90
2023-04-26T01:42:38.522Z,99.90
2023-04-26T01:45:05.275Z,99.90
2023-04-26T01:47:31.857Z,99.90
2023-04-26T01:49:58.355Z,99.90
2023-04-26T01:52:24.925Z,99.90
2023-04-26T01:54:51.580Z,99.90
2023-04-26T01:57:18.104Z,99.90
2023-04-26T01:59:44.763Z,99.90
2023-04-26T02:02:11.345Z,99.90
2023-04-26T02:04:38.237Z,99.90
2023-04-26T02:07:04.799Z,99.90
2023-04-26T02:09:31.343Z,99.90
2023-04-26T02:11:57.884Z,99.90
2023-04-26T02:14:24.524Z,99.90
2023-04-26T02:16:51.826Z,99.90
2023-04-26T02:19:18.815Z,99.90
2023-04-26T02:21:45.908Z,99.90
2023-04-26T02:24:12.420Z,99.90
2023-04-26T02:26:38.969Z,99.90
2023-04-26T02:29:06.482Z,99.90
2023-04-26T02:31:33.403Z,99.90
2023-04-26T02:34:00.095Z,99.90
2023-04-26T02:36:27.316Z,99.90
2023-04-26T02:38:54.331Z,99.90
2023-04-26T02:41:21.183Z,99.90
2023-04-26T02:43:47.890Z,99.90
2023-04-26T02:46:17.182Z,99.90
2023-04-26T02:48:43.936Z,99.90
2023-04-26T02:51:10.658Z,99.90
2023-04-26T02:53:37.260Z,99.90
2023-04-26T02:56:03.965Z,99.90
2023-04-26T02:58:30.624Z,99.90
2023-04-26T03:00:59.606Z,99.90
2023-04-26T03:03:28.182Z,99.90
2023-04-26T03:05:55.064Z,99.90
2023-04-26T03:08:21.626Z,99.90
2023-04-26T03:10:48.229Z,99.90
2023-04-26T03:13:15.208Z,99.90
2023-04-26T03:15:41.888Z,99.90
2023-04-26T03:18:08.546Z,99.90
2023-04-26T03:20:35.410Z,99.90
2023-04-26T03:23:02.002Z,99.90
2023-04-26T03:25:28.522Z,99.90
2023-04-26T03:27:56.524Z,99.90
2023-04-26T03:30:26.313Z,99.90
2023-04-26T03:32:53.130Z,99.90
2023-04-26T03:35:19.822Z,99.90
2023-04-26T03:37:46.491Z,99.90
2023-04-26T03:40:13.286Z,99.90
2023-04-26T03:42:40.143Z,99.90
2023-04-26T03:45:06.738Z,99.90
2023-04-26T03:47:33.513Z,99.90
2023-04-26T03:50:00.320Z,99.90
2023-04-26T03:52:27.062Z,99.90
2023-04-26T03:54:53.618Z,99.90
2023-04-26T03:57:20.252Z,99.90
2023-04-26T03:59:46.805Z,99.90
2023-04-26T04:02:13.495Z,99.90
2023-04-26T04:04:40.444Z,99.90
2023-04-26T04:07:07.537Z,99.90
2023-04-26T04:09:34.174Z,99.90
2023-04-26T04:12:01.292Z,99.90
2023-04-26T04:14:27.885Z,99.90
2023-04-26T04:16:54.493Z,99.90
2023-04-26T04:19:21.036Z,99.90
2023-04-26T04:21:47.609Z,99.90
2023-04-26T04:24:14.135Z,99.90
2023-04-26T04:26:41.097Z,99.90
2023-04-26T04:29:11.333Z,99.90
2023-04-26T04:31:39.944Z,99.90
2023-04-26T04:34:06.591Z,99.90
2023-04-26T04:36:33.716Z,99.90
2023-04-26T04:39:00.385Z,99.90
2023-04-26T04:41:27.840Z,99.90
2023-04-26T04:43:55.069Z,99.90
2023-04-26T04:46:22.115Z,99.90
2023-04-26T04:48:49.636Z,99.90
2023-04-26T04:51:16.512Z,99.90
2023-04-26T04:53:43.320Z,99.90
2023-04-26T04:56:09.869Z,99.90
2023-04-26T04:58:37.171Z,99.90
2023-04-26T05:01:03.757Z,99.90
2023-04-26T05:03:30.593Z,99.90
2023-04-26T05:05:57.304Z,99.90
2023-04-26T05:08:23.950Z,99.90
2023-04-26T05:10:50.541Z,99.90
2023-04-26T05:13:17.144Z,99.90
2023-04-26T05:15:43.680Z,99.90
2023-04-26T05:18:10.358Z,99.90
2023-04-26T05:20:37.158Z,99.90
2023-04-26T05:23:03.832Z,99.90
2023-04-26T05:25:30.352Z,99.90
2023-04-26T05:27:56.945Z,99.90
2023-04-26T05:30:23.528Z,99.90
2023-04-26T05:32:50.512Z,99.90
2023-04-26T05:35:17.259Z,99.90
2023-04-26T05:37:43.844Z,99.90
2023-04-26T05:40:12.284Z,99.90
2023-04-26T05:42:38.926Z,99.90
2023-04-26T05:45:05.480Z,99.90
2023-04-26T05:47:32.053Z,99.90
2023-04-26T05:49:58.578Z,99.90
2023-04-26T05:52:25.087Z,99.90
2023-04-26T05:54:51.615Z,99.90
2023-04-26T05:57:18.979Z,99.90
2023-04-26T05:59:46.023Z,99.90
2023-04-26T06:02:12.707Z,99.90
2023-04-26T06:04:39.444Z,99.90
2023-04-26T06:07:07.038Z,99.90
2023-04-26T06:09:33.658Z,99.90
2023-04-26T06:12:00.205Z,99.90
2023-04-26T06:14:30.568Z,99.90
2023-04-26T06:16:57.470Z,99.90
2023-04-26T06:19:24.268Z,99.90
2023-04-26T06:21:52.166Z,99.90
2023-04-26T06:24:19.239Z,99.90
2023-04-26T06:26:46.122Z,99.90
2023-04-26T06:29:12.675Z,99.90
2023-04-26T06:31:39.281Z,99.90
2023-04-26T06:34:06.425Z,99.90
2023-04-26T06:36:33.169Z,99.90
2023-04-26T06:38:59.699Z,99.90
2023-04-26T06:41:26.785Z,99.90
2023-04-26T06:43:53.519Z,99.90
2023-04-26T06:46:20.358Z,99.90
2023-04-26T06:48:46.994Z,99.90
2023-04-26T06:51:13.853Z,99.90
2023-04-26T06:53:41.494Z,99.90
2023-04-26T06:56:08.167Z,99.90
2023-04-26T06:58:34.781Z,99.90
2023-04-26T07:01:02.026Z,99.90
2023-04-26T07:03:29.378Z,99.90
2023-04-26T07:05:56.731Z,99.90
2023-04-26T07:08:23.392Z,99.90
2023-04-26T07:10:50.133Z,99.90
2023-04-26T07:13:17.027Z,99.90
2023-04-26T07:15:43.677Z,99.90
2023-04-26T07:18:10.327Z,99.90
2023-04-26T07:20:37.009Z,99.90
2023-04-26T07:23:05.070Z,99.90
2023-04-26T07:25:32.844Z,99.90
2023-04-26T07:27:59.921Z,99.90
2023-04-26T07:30:26.685Z,99.90
2023-04-26T07:32:53.452Z,99.90
2023-04-26T07:35:20.158Z,99.90
2023-04-26T07:37:46.976Z,99.90
2023-04-26T07:40:14.874Z,99.90
2023-04-26T07:42:41.682Z,99.90
2023-04-26T07:45:08.592Z,99.90
2023-04-26T07:47:35.199Z,99.90
2023-04-26T07:50:01.802Z,99.90
2023-04-26T07:52:28.405Z,99.90
2023-04-26T07:54:55.379Z,99.90
2023-04-26T07:57:22.019Z,99.90
2023-04-26T07:59:48.573Z,99.90
2023-04-26T08:02:15.265Z,99.90
2023-04-26T08:04:42.033Z,99.90
2023-04-26T08:07:09.041Z,99.90
2023-04-26T08:09:35.950Z,99.90
2023-04-26T08:12:02.684Z,99.90
2023-04-26T08:14:30.144Z,99.90
2023-04-26T08:16:56.793Z,99.90
2023-04-26T08:19:23.373Z,99.90
2023-04-26T08:21:49.940Z,99.90
2023-04-26T08:24:16.585Z,99.90
2023-04-26T08:26:43.154Z,99.90
2023-04-26T08:29:09.729Z,99.90
2023-04-26T08:31:36.380Z,99.90
2023-04-26T08:34:03.026Z,99.90
2023-04-26T08:36:29.638Z,99.90
2023-04-26T08:38:57.676Z,99.90
2023-04-26T08:41:24.792Z,99.00
2023-04-26T08:43:51.622Z,99.10
2023-04-26T08:46:18.354Z,98.90
2023-04-26T08:48:45.003Z,99.80
2023-04-26T08:51:11.635Z,99.90
2023-04-26T08:53:38.236Z,99.40
2023-04-26T08:56:04.798Z,99.20
2023-04-26T08:58:32.318Z,99.10
2023-04-26T09:00:58.910Z,99.50
2023-04-26T09:03:26.434Z,98.90
2023-04-26T09:05:54.468Z,98.10
2023-04-26T09:08:22.005Z,99.30
2023-04-26T09:10:48.601Z,99.10
2023-04-26T09:13:15.574Z,98.10
2023-04-26T09:15:42.248Z,98.40
2023-04-26T09:18:09.004Z,98.20
2023-04-26T09:20:35.581Z,96.80
2023-04-26T09:23:02.115Z,96.80
2023-04-26T09:25:28.842Z,96.80
2023-04-26T09:27:55.531Z,96.10
2023-04-26T09:30:22.198Z,96.70
2023-04-26T09:32:48.918Z,96.40
2023-04-26T09:35:15.602Z,94.50
2023-04-26T09:37:50.859Z,94.60
2023-04-26T09:40:24.466Z,94.70
2023-04-26T09:42:51.181Z,93.90
2023-04-26T09:45:17.734Z,94.20
2023-04-26T09:47:44.506Z,93.30
2023-04-26T09:50:11.208Z,94.00
2023-04-26T09:52:38.182Z,94.20
2023-04-26T09:55:04.852Z,94.00
2023-04-26T09:57:31.681Z,93.80
2023-04-26T09:59:59.934Z,93.30
2023-04-26T10:02:26.908Z,93.30
2023-04-26T10:04:53.755Z,93.90
2023-04-26T10:07:20.568Z,93.60
2023-04-26T10:09:47.145Z,94.40
2023-04-26T10:12:13.951Z,93.20
2023-04-26T10:14:41.416Z,92.30
2023-04-26T10:17:08.069Z,93.10
2023-04-26T10:19:34.632Z,91.50
2023-04-26T10:22:01.180Z,91.40
2023-04-26T10:24:27.787Z,91.90
2023-04-26T10:26:57.609Z,91.50
2023-04-26T10:29:24.236Z,91.70
2023-04-26T10:31:51.161Z,90.80
2023-04-26T10:34:17.980Z,92.10
2023-04-26T10:36:44.550Z,91.80
2023-04-26T10:39:11.161Z,90.40
2023-04-26T10:41:39.804Z,90.10
2023-04-26T10:44:06.405Z,89.70
2023-04-26T10:46:33.028Z,90.60
2023-04-26T10:48:59.752Z,91.20
2023-04-26T10:51:27.194Z,91.00
2023-04-26T10:53:54.646Z,91.00
2023-04-26T10:56:22.095Z,90.50
2023-04-26T10:58:48.712Z,90.30
2023-04-26T11:01:18.594Z,90.60
2023-04-26T11:03:45.533Z,90.20
2023-04-26T11:06:15.670Z,88.30
2023-04-26T11:08:43.212Z,89.00
2023-04-26T11:11:09.830Z,89.80
2023-04-26T11:13:36.428Z,90.00
2023-04-26T11:16:06.374Z,89.70
2023-04-26T11:18:32.966Z,89.60
2023-04-26T11:20:59.533Z,89.00
2023-04-26T11:23:26.335Z,89.70
2023-04-26T11:25:54.909Z,87.00
2023-04-26T11:28:23.203Z,86.20
2023-04-26T11:30:50.049Z,85.10
2023-04-26T11:33:17.780Z,85.40
2023-04-26T11:35:44.406Z,87.20
2023-04-26T11:38:13.304Z,87.90
2023-04-26T11:40:39.894Z,88.50
2023-04-26T11:43:06.467Z,86.90
2023-04-26T11:45:33.448Z,86.20
2023-04-26T11:48:00.033Z,87.50
2023-04-26T11:50:26.886Z,88.00
2023-04-26T11:52:54.526Z,90.00
2023-04-26T11:55:21.043Z,88.80
2023-04-26T11:57:47.654Z,88.20
2023-04-26T12:00:14.776Z,90.30
2023-04-26T12:02:41.622Z,90.40
2023-04-26T12:05:09.118Z,91.00
2023-04-26T12:07:38.838Z,91.20
2023-04-26T12:10:05.369Z,91.30
2023-04-26T12:12:31.954Z,92.10
2023-04-26T12:14:58.625Z,90.40
2023-04-26T12:17:25.358Z,89.80
2023-04-26T12:19:52.165Z,88.80
2023-04-26T12:22:18.666Z,90.90
2023-04-26T12:24:47.471Z,90.00
2023-04-26T12:27:14.064Z,86.70
2023-04-26T12:29:41.316Z,92.10
2023-04-26T12:32:08.018Z,90.20
2023-04-26T12:34:34.925Z,80.30
2023-04-26T12:37:01.503Z,81.70
2023-04-26T12:39:28.097Z,79.50
2023-04-26T12:41:55.214Z,79.50
2023-04-26T12:44:22.605Z,78.60
2023-04-26T12:46:49.495Z,77.90
2023-04-26T12:49:16.195Z,78.90
2023-04-26T12:51:42.778Z,76.50
2023-04-26T12:54:09.327Z,75.30
2023-04-26T12:56:40.678Z,78.70
2023-04-26T12:59:07.269Z,77.40
2023-04-26T13:01:33.887Z,76.90
2023-04-26T13:04:01.104Z,75.50
2023-04-26T13:06:28.631Z,78.70
2023-04-26T13:08:55.399Z,79.00
2023-04-26T13:11:22.126Z,81.50
2023-04-26T13:13:49.554Z,79.40
2023-04-26T13:16:16.811Z,79.90
2023-04-26T13:18:43.488Z,80.50
2023-04-26T13:21:10.002Z,80.90
2023-04-26T13:23:36.724Z,84.30
2023-04-26T13:26:03.242Z,82.10
2023-04-26T13:28:29.901Z,80.10
2023-04-26T13:30:56.574Z,81.60
2023-04-26T13:33:23.291Z,82.10
2023-04-26T13:35:49.840Z,79.50
2023-04-26T13:38:16.984Z,78.50
2023-04-26T13:40:44.051Z,76.80
2023-04-26T13:43:10.840Z,78.30
2023-04-26T13:45:37.499Z,78.70
2023-04-26T13:48:04.124Z,77.20
2023-04-26T13:50:30.737Z,77.00
2023-04-26T13:52:57.369Z,78.40
2023-04-26T13:55:24.265Z,75.80
2023-04-26T13:57:51.027Z,76.80
2023-04-26T14:00:17.675Z,78.40
2023-04-26T14:02:44.449Z,79.80
2023-04-26T14:05:11.679Z,79.20
2023-04-26T14:07:38.319Z,81.40
2023-04-26T14:10:04.832Z,80.90
2023-04-26T14:12:31.640Z,82.60
2023-04-26T14:14:58.226Z,82.00
2023-04-26T14:17:25.711Z,81.40
2023-04-26T14:19:54.668Z,80.70
2023-04-26T14:22:21.640Z,79.80
2023-04-26T14:24:48.869Z,79.90
2023-04-26T14:27:15.450Z,83.40
2023-04-26T14:29:42.064Z,78.40
2023-04-26T14:32:08.805Z,77.00
2023-04-26T14:34:39.119Z,79.00
2023-04-26T14:37:05.905Z,78.60
2023-04-26T14:39:32.446Z,78.90
2023-04-26T14:41:59.081Z,80.10
2023-04-26T14:44:25.678Z,79.90
2023-04-26T14:46:52.530Z,79.10
2023-04-26T14:49:19.103Z,79.10
2023-04-26T14:51:45.753Z,78.70
2023-04-26T14:54:12.369Z,77.10
2023-04-26T14:56:38.918Z,78.50
2023-04-26T14:59:05.691Z,79.00
2023-04-26T15:01:32.417Z,74.40
2023-04-26T15:04:01.021Z,76.40
2023-04-26T15:06:28.643Z,73.40
2023-04-26T15:08:55.225Z,73.10
2023-04-26T15:11:21.741Z,73.50
2023-04-26T15:13:48.287Z,77.00
2023-04-26T15:16:14.871Z,72.90
2023-04-26T15:18:41.460Z,74.70
2023-04-26T15:21:09.113Z,76.20
2023-04-26T15:23:35.930Z,75.90
2023-04-26T15:26:02.475Z,78.70
2023-04-26T15:28:29.097Z,80.30
2023-04-26T15:30:55.647Z,79.90
2023-04-26T15:33:22.249Z,76.60
2023-04-26T15:35:48.819Z,77.40
2023-04-26T15:38:15.576Z,77.20
2023-04-26T15:40:42.797Z,78.00
2023-04-26T15:43:09.420Z,78.10
2023-04-26T15:45:36.417Z,77.30
2023-04-26T15:48:03.015Z,76.80
2023-04-26T15:50:29.544Z,78.30
2023-04-26T15:52:58.288Z,78.50
2023-04-26T15:55:25.159Z,75.80
2023-04-26T15:57:51.727Z,75.20
2023-04-26T16:00:18.318Z,76.30
2023-04-26T16:02:45.243Z,76.20
2023-04-26T16:05:12.019Z,74.10
2023-04-26T16:07:38.818Z,77.80
2023-04-26T16:10:05.475Z,78.10
2023-04-26T16:12:32.465Z,79.20
2023-04-26T16:14:59.178Z,77.60
2023-04-26T16:17:25.932Z,78.50
2023-04-26T16:19:52.658Z,78.40
2023-04-26T16:22:19.302Z,78.50
2023-04-26T16:24:46.139Z,76.70
2023-04-26T16:27:12.922Z,75.10
2023-04-26T16:29:39.638Z,74.60
2023-04-26T16:32:06.679Z,74.70
2023-04-26T16:34:33.277Z,74.90
2023-04-26T16:37:00.109Z,76.70
2023-04-26T16:39:28.509Z,75.40
2023-04-26T16:41:55.280Z,77.30
2023-04-26T16:44:22.138Z,76.20
2023-04-26T16:46:50.412Z,74.80
2023-04-26T16:49:17.180Z,76.00
2023-04-26T16:51:44.732Z,77.70
2023-04-26T16:54:11.755Z,76.40
2023-04-26T16:56:38.762Z,75.50
2023-04-26T16:59:05.712Z,75.80
2023-04-26T17:01:32.463Z,75.80
2023-04-26T17:03:59.785Z,76.20
2023-04-26T17:06:26.640Z,77.30
2023-04-26T17:08:53.274Z,79.30
2023-04-26T17:11:19.846Z,77.90
2023-04-26T17:13:46.353Z,77.80
2023-04-26T17:16:12.972Z,78.70
2023-04-26T17:18:39.637Z,80.30
2023-04-26T17:21:07.008Z,80.60
2023-04-26T17:23:33.860Z,80.60
2023-04-26T17:26:00.625Z,80.90
2023-04-26T17:28:27.214Z,82.50
2023-04-26T17:30:53.801Z,85.50
2023-04-26T17:33:20.654Z,85.00
2023-04-26T17:35:47.412Z,84.20
2023-04-26T17:38:14.025Z,84.10
2023-04-26T17:40:40.572Z,84.10
2023-04-26T17:43:07.144Z,85.80
2023-04-26T17:45:33.767Z,86.60
2023-04-26T17:48:00.445Z,86.30
2023-04-26T17:50:27.060Z,86.70
2023-04-26T17:52:53.572Z,87.70
2023-04-26T17:55:20.116Z,88.00
2023-04-26T17:57:46.703Z,88.50
2023-04-26T18:00:13.798Z,89.40
2023-04-26T18:02:40.815Z,89.40
2023-04-26T18:05:08.565Z,89.80
2023-04-26T18:07:35.212Z,89.90
2023-04-26T18:10:01.972Z,89.70
2023-04-26T18:12:30.678Z,89.90
2023-04-26T18:14:57.278Z,90.00
2023-04-26T18:17:23.905Z,90.00
2023-04-26T18:19:50.870Z,90.20
2023-04-26T18:22:17.579Z,90.40
2023-04-26T18:24:44.109Z,91.00
2023-04-26T18:27:12.885Z,91.00
2023-04-26T18:29:39.424Z,91.30
2023-04-26T18:32:05.993Z,91.80
2023-04-26T18:34:32.759Z,91.70
2023-04-26T18:36:59.324Z,92.20
2023-04-26T18:39:25.928Z,92.50
2023-04-26T18:41:53.552Z,93.10
2023-04-26T18:44:20.602Z,93.10
2023-04-26T18:46:47.371Z,93.20
2023-04-26T18:49:14.042Z,93.50
2023-04-26T18:51:40.639Z,93.80
2023-04-26T18:54:07.189Z,93.90
2023-04-26T18:56:33.742Z,93.80
2023-04-26T18:59:00.318Z,94.00
2023-04-26T19:01:27.005Z,94.20
2023-04-26T19:03:53.893Z,94.40
2023-04-26T19:06:22.331Z,94.40
2023-04-26T19:08:48.940Z,94.60
2023-04-26T19:11:15.895Z,94.70
2023-04-26T19:13:42.797Z,95.00
2023-04-26T19:16:09.642Z,95.20
2023-04-26T19:18:37.028Z,95.30
2023-04-26T19:21:03.962Z,95.60
2023-04-26T19:23:30.568Z,95.70
2023-04-26T19:25:57.273Z,95.80
2023-04-26T19:28:23.909Z,95.80
2023-04-26T19:30:50.699Z,96.50
2023-04-26T19:33:17.274Z,96.30
2023-04-26T19:35:43.896Z,96.50
2023-04-26T19:38:10.528Z,96.50
2023-04-26T19:40:38.789Z,96.50
2023-04-26T19:43:05.682Z,96.90
2023-04-26T19:45:32.305Z,97.00
2023-04-26T19:47:58.931Z,97.00
2023-04-26T19:50:25.656Z,97.10
2023-04-26T19:52:52.275Z,97.30
2023-04-26T19:55:19.592Z,97.40
2023-04-26T19:57:47.684Z,97.60
2023-04-26T20:00:15.374Z,97.60
2023-04-26T20:02:42.246Z,97.60
2023-04-26T20:05:09.299Z,97.70
2023-04-26T20:07:36.113Z,97.80
2023-04-26T20:10:02.702Z,97.90
2023-04-26T20:12:30.323Z,98.20
2023-04-26T20:14:57.180Z,98.10
2023-04-26T20:17:23.761Z,98.20
2023-04-26T20:19:50.690Z,98.40
2023-04-26T20:22:17.406Z,98.70
2023-04-26T20:24:43.998Z,98.70
2023-04-26T20:27:11.293Z,98.60
2023-04-26T20:29:38.029Z,98.70
2023-04-26T20:32:05.813Z,98.80
2023-04-26T20:34:32.851Z,99.00
2023-04-26T20:36:59.452Z,99.00
2023-04-26T20:39:28.262Z,99.40
2023-04-26T20:41:54.956Z,99.40
2023-04-26T20:44:21.715Z,99.40
2023-04-26T20:46:48.422Z,99.60
2023-04-26T20:49:15.717Z,99.70
2023-04-26T20:51:42.456Z,99.90
2023-04-26T20:54:09.432Z,99.90
2023-04-26T20:56:36.616Z,99.90
2023-04-26T20:59:03.182Z,99.90
2023-04-26T21:01:30.499Z,99.80
2023-04-26T21:03:57.241Z,99.90
2023-04-26T21:06:23.887Z,99.70
2023-04-26T21:08:50.593Z,99.80
2023-04-26T21:11:17.181Z,99.70
2023-04-26T21:13:43.717Z,99.40
2023-04-26T21:16:10.424Z,99.60
2023-04-26T21:18:37.163Z,99.70
2023-04-26T21:21:03.833Z,99.90
2023-04-26T21:23:30.465Z,99.90
2023-04-26T21:25:56.996Z,99.90
2023-04-26T21:28:23.777Z,99.90
2023-04-26T21:30:50.398Z,99.90
2023-04-26T21:33:17.078Z,99.90
2023-04-26T21:35:43.769Z,99.90
2023-04-26T21:38:10.517Z,99.90
2023-04-26T21:40:37.077Z,99.90
2023-04-26T21:43:05.148Z,99.90
2023-04-26T21:45:32.187Z,99.90
2023-04-26T21:47:58.956Z,99.90
2023-04-26T21:50:25.697Z,99.90
2023-04-26T21:52:52.310Z,99.90
2023-04-26T21:55:19.161Z,99.90
2023-04-26T21:57:45.814Z,99.90
2023-04-26T22:00:13.128Z,99.90
2023-04-26T22:02:40.059Z,99.90
2023-04-26T22:05:06.861Z,99.90
2023-04-26T22:07:33.388Z,99.90
2023-04-26T22:10:00.157Z,99.90
2023-04-26T22:12:27.590Z,99.90
2023-04-26T22:14:54.225Z,99.90
2023-04-26T22:17:20.996Z,99.90
2023-04-26T22:19:47.584Z,99.90
2023-04-26T22:22:14.126Z,99.90
2023-04-26T22:24:40.708Z,99.90
2023-04-26T22:27:07.576Z,99.90
2023-04-26T22:29:34.262Z,99.90
2023-04-26T22:32:01.047Z,99.90
2023-04-26T22:34:27.630Z,99.90
2023-04-26T22:36:54.336Z,99.90
2023-04-26T22:39:21.546Z,99.90
2023-04-26T22:41:48.339Z,99.90
2023-04-26T22:44:15.178Z,99.90
2023-04-26T22:46:41.767Z,99.90
2023-04-26T22:49:08.505Z,99.90
2023-04-26T22:51:35.205Z,99.90
2023-04-26T22:54:01.930Z,99.90
2023-04-26T22:56:28.539Z,99.90
2023-04-26T22:58:55.173Z,99.90
2023-04-26T23:01:21.937Z,99.90
2023-04-26T23:03:48.605Z,99.90
2023-04-26T23:06:15.275Z,99.90
2023-04-26T23:08:41.891Z,99.90
2023-04-26T23:11:08.802Z,99.90
2023-04-26T23:13:36.330Z,99.90
2023-04-26T23:16:04.295Z,99.90
2023-04-26T23:18:31.219Z,99.90
2023-04-26T23:20:57.869Z,99.90
2023-04-26T23:23:24.452Z,99.90
2023-04-26T23:25:51.182Z,99.90
2023-04-26T23:28:17.811Z,99.90
2023-04-26T23:30:44.371Z,99.90
2023-04-26T23:33:11.165Z,99.90
2023-04-26T23:35:37.738Z,99.90
2023-04-26T23:38:04.377Z,99.90
2023-04-26T23:40:31.112Z,99.90
2023-04-26T23:42:57.709Z,99.90
2023-04-26T23:45:24.428Z,99.90
2023-04-26T23:47:51.224Z,99.90
2023-04-26T23:50:17.853Z,99.90
2023-04-26T23:52:44.461Z,99.90
2023-04-26T23:55:11.126Z,99.90
2023-04-26T23:57:37.762Z,99.90
